sensor_id;sensor_type;location;lat;lon;timestamp;pressure;altitude;pressure_sealevel;temperature;humidity
10852;BME280;5479;52.046;6.314;2023-06-10T00:00:08;101363.09;;;21.40;69.08
10852;BME280;5479;52.046;6.314;2023-06-10T00:02:39;101366.41;;;21.34;69.06
10852;BME280;5479;52.046;6.314;2023-06-10T00:05:07;101374.47;;;21.34;68.84
10852;BME280;5479;52.046;6.314;2023-06-10T00:07:37;101379.00;;;21.24;68.52
10852;BME280;5479;52.046;6.314;2023-06-10T00:10:06;101374.22;;;21.18;69.00
10852;BME280;5479;52.046;6.314;2023-06-10T00:12:34;101381.00;;;21.22;68.01
10852;BME280;5479;52.046;6.314;2023-06-10T00:15:04;101379.22;;;21.13;68.51
10852;BME280;5479;52.046;6.314;2023-06-10T00:17:32;101379.50;;;21.10;68.21
10852;BME280;5479;52.046;6.314;2023-06-10T00:20:00;101381.00;;;21.03;68.56
10852;BME280;5479;52.046;6.314;2023-06-10T00:22:31;101374.50;;;20.96;68.55
10852;BME280;5479;52.046;6.314;2023-06-10T00:25:00;101368.84;;;20.99;67.83
10852;BME280;5479;52.046;6.314;2023-06-10T00:27:30;101383.56;;;20.95;67.90
10852;BME280;5479;52.046;6.314;2023-06-10T00:30:02;101375.34;;;20.87;67.97
10852;BME280;5479;52.046;6.314;2023-06-10T00:32:33;101376.78;;;20.81;68.61
10852;BME280;5479;52.046;6.314;2023-06-10T00:35:01;101380.91;;;20.76;69.00
10852;BME280;5479;52.046;6.314;2023-06-10T00:37:29;101376.94;;;20.70;68.15
10852;BME280;5479;52.046;6.314;2023-06-10T00:39:57;101377.34;;;20.66;67.85
10852;BME280;5479;52.046;6.314;2023-06-10T00:42:26;101380.03;;;20.66;67.89
10852;BME280;5479;52.046;6.314;2023-06-10T00:44:54;101375.38;;;20.58;67.60
10852;BME280;5479;52.046;6.314;2023-06-10T00:47:23;101387.00;;;20.49;67.92
10852;BME280;5479;52.046;6.314;2023-06-10T00:49:51;101388.41;;;20.43;68.39
10852;BME280;5479;52.046;6.314;2023-06-10T00:52:19;101394.34;;;20.47;67.64
10852;BME280;5479;52.046;6.314;2023-06-10T00:54:50;101386.25;;;20.47;67.08
10852;BME280;5479;52.046;6.314;2023-06-10T00:57:20;101388.81;;;20.39;67.08
10852;BME280;5479;52.046;6.314;2023-06-10T00:59:50;101386.53;;;20.34;67.18
10852;BME280;5479;52.046;6.314;2023-06-10T01:02:19;101391.75;;;20.26;67.33
10852;BME280;5479;52.046;6.314;2023-06-10T01:04:47;101390.06;;;20.25;67.48
10852;BME280;5479;52.046;6.314;2023-06-10T01:07:21;101384.47;;;20.17;68.18
10852;BME280;5479;52.046;6.314;2023-06-10T01:09:55;101389.75;;;20.19;67.44
10852;BME280;5479;52.046;6.314;2023-06-10T01:12:31;101380.94;;;20.07;68.72
10852;BME280;5479;52.046;6.314;2023-06-10T01:15:03;101388.13;;;20.07;69.03
10852;BME280;5479;52.046;6.314;2023-06-10T01:17:32;101390.00;;;20.06;68.88
10852;BME280;5479;52.046;6.314;2023-06-10T01:20:00;101394.25;;;20.09;68.64
10852;BME280;5479;52.046;6.314;2023-06-10T01:22:39;101390.28;;;20.03;69.28
10852;BME280;5479;52.046;6.314;2023-06-10T01:25:07;101391.09;;;20.04;69.44
10852;BME280;5479;52.046;6.314;2023-06-10T01:27:37;101393.94;;;20.02;70.00
10852;BME280;5479;52.046;6.314;2023-06-10T01:30:14;101384.56;;;19.97;70.28
10852;BME280;5479;52.046;6.314;2023-06-10T01:32:45;101395.16;;;19.88;71.51
10852;BME280;5479;52.046;6.314;2023-06-10T01:35:17;101387.94;;;19.89;71.78
10852;BME280;5479;52.046;6.314;2023-06-10T01:37:48;101393.59;;;19.86;72.57
10852;BME280;5479;52.046;6.314;2023-06-10T01:40:17;101391.88;;;19.85;73.18
10852;BME280;5479;52.046;6.314;2023-06-10T01:42:46;101401.22;;;19.81;73.91
10852;BME280;5479;52.046;6.314;2023-06-10T01:45:13;101391.84;;;19.75;74.74
10852;BME280;5479;52.046;6.314;2023-06-10T01:47:42;101394.09;;;19.70;75.74
10852;BME280;5479;52.046;6.314;2023-06-10T01:50:10;101396.66;;;19.72;76.06
10852;BME280;5479;52.046;6.314;2023-06-10T01:52:37;101401.72;;;19.65;77.09
10852;BME280;5479;52.046;6.314;2023-06-10T01:55:07;101398.88;;;19.67;77.63
10852;BME280;5479;52.046;6.314;2023-06-10T01:57:35;101399.31;;;19.62;78.40
10852;BME280;5479;52.046;6.314;2023-06-10T02:00:04;101399.97;;;19.55;79.49
10852;BME280;5479;52.046;6.314;2023-06-10T02:02:32;101405.63;;;19.52;80.53
10852;BME280;5479;52.046;6.314;2023-06-10T02:05:00;101406.47;;;19.52;80.82
10852;BME280;5479;52.046;6.314;2023-06-10T02:07:29;101405.88;;;19.49;81.98
10852;BME280;5479;52.046;6.314;2023-06-10T02:09:57;101404.97;;;19.39;83.42
10852;BME280;5479;52.046;6.314;2023-06-10T02:12:27;101410.56;;;19.36;84.20
10852;BME280;5479;52.046;6.314;2023-06-10T02:14:55;101409.69;;;19.25;85.79
10852;BME280;5479;52.046;6.314;2023-06-10T02:17:22;101405.97;;;19.26;86.15
10852;BME280;5479;52.046;6.314;2023-06-10T02:19:50;101412.34;;;19.25;87.01
10852;BME280;5479;52.046;6.314;2023-06-10T02:22:20;101415.25;;;19.34;86.63
10852;BME280;5479;52.046;6.314;2023-06-10T02:24:49;101412.63;;;19.22;87.89
10852;BME280;5479;52.046;6.314;2023-06-10T02:27:18;101413.13;;;19.16;89.12
10852;BME280;5479;52.046;6.314;2023-06-10T02:29:47;101415.38;;;19.11;90.08
10852;BME280;5479;52.046;6.314;2023-06-10T02:32:15;101405.84;;;19.07;91.22
10852;BME280;5479;52.046;6.314;2023-06-10T02:34:43;101406.16;;;19.04;91.39
10852;BME280;5479;52.046;6.314;2023-06-10T02:37:12;101407.63;;;18.97;92.97
10852;BME280;5479;52.046;6.314;2023-06-10T02:39:40;101418.81;;;19.02;92.95
10852;BME280;5479;52.046;6.314;2023-06-10T02:42:08;101408.47;;;18.98;93.41
10852;BME280;5479;52.046;6.314;2023-06-10T02:44:36;101411.09;;;18.88;94.67
10852;BME280;5479;52.046;6.314;2023-06-10T02:47:06;101415.25;;;18.81;95.73
10852;BME280;5479;52.046;6.314;2023-06-10T02:49:35;101410.69;;;18.72;97.02
10852;BME280;5479;52.046;6.314;2023-06-10T02:52:03;101415.19;;;18.72;98.32
10852;BME280;5479;52.046;6.314;2023-06-10T02:54:33;101415.81;;;18.75;98.13
10852;BME280;5479;52.046;6.314;2023-06-10T02:57:02;101422.00;;;18.76;98.29
10852;BME280;5479;52.046;6.314;2023-06-10T02:59:31;101416.88;;;18.73;98.84
10852;BME280;5479;52.046;6.314;2023-06-10T03:02:00;101410.00;;;18.59;100.00
10852;BME280;5479;52.046;6.314;2023-06-10T03:04:29;101418.13;;;18.68;100.00
10852;BME280;5479;52.046;6.314;2023-06-10T03:06:57;101413.41;;;18.61;100.00
10852;BME280;5479;52.046;6.314;2023-06-10T03:09:25;101416.34;;;18.58;100.00
10852;BME280;5479;52.046;6.314;2023-06-10T03:11:53;101417.84;;;18.51;100.00
10852;BME280;5479;52.046;6.314;2023-06-10T03:14:22;101422.59;;;18.47;100.00
10852;BME280;5479;52.046;6.314;2023-06-10T03:16:51;101428.56;;;18.51;100.00
10852;BME280;5479;52.046;6.314;2023-06-10T03:19:19;101426.34;;;18.45;100.00
10852;BME280;5479;52.046;6.314;2023-06-10T03:21:49;101416.13;;;18.50;100.00
10852;BME280;5479;52.046;6.314;2023-06-10T03:24:17;101411.63;;;18.50;100.00
10852;BME280;5479;52.046;6.314;2023-06-10T03:26:47;101425.50;;;18.44;100.00
10852;BME280;5479;52.046;6.314;2023-06-10T03:29:15;101427.31;;;18.44;100.00
10852;BME280;5479;52.046;6.314;2023-06-10T03:31:43;101427.56;;;18.41;100.00
10852;BME280;5479;52.046;6.314;2023-06-10T03:34:11;101427.31;;;18.44;100.00
10852;BME280;5479;52.046;6.314;2023-06-10T03:36:39;101427.06;;;18.47;100.00
10852;BME280;5479;52.046;6.314;2023-06-10T03:39:11;101429.03;;;18.45;100.00
10852;BME280;5479;52.046;6.314;2023-06-10T03:41:39;101433.91;;;18.40;100.00
10852;BME280;5479;52.046;6.314;2023-06-10T03:44:07;101432.22;;;18.50;100.00
10852;BME280;5479;52.046;6.314;2023-06-10T03:46:35;101433.78;;;18.41;100.00
10852;BME280;5479;52.046;6.314;2023-06-10T03:49:03;101438.56;;;18.38;100.00
10852;BME280;5479;52.046;6.314;2023-06-10T03:51:31;101437.72;;;18.37;100.00
10852;BME280;5479;52.046;6.314;2023-06-10T03:53:59;101446.47;;;18.39;100.00
10852;BME280;5479;52.046;6.314;2023-06-10T03:56:28;101439.38;;;18.38;100.00
10852;BME280;5479;52.046;6.314;2023-06-10T03:58:56;101441.03;;;18.30;100.00
10852;BME280;5479;52.046;6.314;2023-06-10T04:01:24;101436.59;;;18.40;100.00
10852;BME280;5479;52.046;6.314;2023-06-10T04:03:52;101438.28;;;18.41;100.00
10852;BME280;5479;52.046;6.314;2023-06-10T04:06:20;101441.97;;;18.40;100.00
10852;BME280;5479;52.046;6.314;2023-06-10T04:08:49;101440.63;;;18.45;100.00
10852;BME280;5479;52.046;6.314;2023-06-10T04:11:17;101443.94;;;18.38;100.00
10852;BME280;5479;52.046;6.314;2023-06-10T04:13:49;101449.28;;;18.49;100.00
10852;BME280;5479;52.046;6.314;2023-06-10T04:16:17;101448.06;;;18.53;100.00
10852;BME280;5479;52.046;6.314;2023-06-10T04:18:45;101441.69;;;18.54;100.00
10852;BME280;5479;52.046;6.314;2023-06-10T04:21:13;101442.28;;;18.46;100.00
10852;BME280;5479;52.046;6.314;2023-06-10T04:23:41;101454.03;;;18.56;100.00
10852;BME280;5479;52.046;6.314;2023-06-10T04:26:08;101448.66;;;18.56;100.00
10852;BME280;5479;52.046;6.314;2023-06-10T04:28:37;101456.81;;;18.55;100.00
10852;BME280;5479;52.046;6.314;2023-06-10T04:31:07;101458.53;;;18.56;100.00
10852;BME280;5479;52.046;6.314;2023-06-10T04:33:35;101461.69;;;18.61;100.00
10852;BME280;5479;52.046;6.314;2023-06-10T04:36:03;101461.19;;;18.67;100.00
10852;BME280;5479;52.046;6.314;2023-06-10T04:38:33;101459.72;;;18.63;100.00
10852;BME280;5479;52.046;6.314;2023-06-10T04:41:01;101465.16;;;18.73;100.00
10852;BME280;5479;52.046;6.314;2023-06-10T04:43:29;101468.94;;;18.81;100.00
10852;BME280;5479;52.046;6.314;2023-06-10T04:45:57;101466.47;;;18.89;100.00
10852;BME280;5479;52.046;6.314;2023-06-10T04:48:26;101468.69;;;18.84;100.00
10852;BME280;5479;52.046;6.314;2023-06-10T04:50:54;101474.50;;;18.89;100.00
10852;BME280;5479;52.046;6.314;2023-06-10T04:53:23;101472.28;;;18.94;100.00
10852;BME280;5479;52.046;6.314;2023-06-10T04:55:50;101468.19;;;18.90;100.00
10852;BME280;5479;52.046;6.314;2023-06-10T04:58:18;101474.16;;;18.94;100.00
10852;BME280;5479;52.046;6.314;2023-06-10T05:00:47;101468.44;;;19.08;100.00
10852;BME280;5479;52.046;6.314;2023-06-10T05:03:15;101469.78;;;19.13;100.00
10852;BME280;5479;52.046;6.314;2023-06-10T05:05:45;101468.34;;;19.09;100.00
10852;BME280;5479;52.046;6.314;2023-06-10T05:08:13;101474.97;;;19.26;100.00
10852;BME280;5479;52.046;6.314;2023-06-10T05:10:41;101470.19;;;19.29;100.00
10852;BME280;5479;52.046;6.314;2023-06-10T05:13:09;101471.44;;;19.25;100.00
10852;BME280;5479;52.046;6.314;2023-06-10T05:15:37;101466.53;;;19.31;100.00
10852;BME280;5479;52.046;6.314;2023-06-10T05:18:07;101467.22;;;19.44;100.00
10852;BME280;5479;52.046;6.314;2023-06-10T05:20:35;101464.78;;;19.41;100.00
10852;BME280;5479;52.046;6.314;2023-06-10T05:23:05;101473.00;;;19.28;100.00
10852;BME280;5479;52.046;6.314;2023-06-10T05:25:33;101475.47;;;19.52;100.00
10852;BME280;5479;52.046;6.314;2023-06-10T05:28:01;101467.19;;;19.64;100.00
10852;BME280;5479;52.046;6.314;2023-06-10T05:30:29;101471.41;;;19.57;100.00
10852;BME280;5479;52.046;6.314;2023-06-10T05:32:57;101471.63;;;19.75;100.00
10852;BME280;5479;52.046;6.314;2023-06-10T05:35:25;101473.34;;;19.76;100.00
10852;BME280;5479;52.046;6.314;2023-06-10T05:37:53;101471.69;;;19.84;100.00
10852;BME280;5479;52.046;6.314;2023-06-10T05:40:22;101470.56;;;19.87;100.00
10852;BME280;5479;52.046;6.314;2023-06-10T05:42:50;101476.31;;;20.03;100.00
10852;BME280;5479;52.046;6.314;2023-06-10T05:45:18;101471.63;;;20.05;100.00
10852;BME280;5479;52.046;6.314;2023-06-10T05:47:46;101478.91;;;20.14;100.00
10852;BME280;5479;52.046;6.314;2023-06-10T05:50:14;101476.13;;;20.25;98.61
10852;BME280;5479;52.046;6.314;2023-06-10T05:52:41;101472.19;;;20.29;100.00
10852;BME280;5479;52.046;6.314;2023-06-10T05:55:10;101476.00;;;20.36;99.18
10852;BME280;5479;52.046;6.314;2023-06-10T05:57:41;101471.50;;;20.46;99.12
10852;BME280;5479;52.046;6.314;2023-06-10T06:00:10;101476.50;;;20.51;93.41
10852;BME280;5479;52.046;6.314;2023-06-10T06:02:38;101477.78;;;20.57;93.81
10852;BME280;5479;52.046;6.314;2023-06-10T06:05:06;101475.09;;;20.66;93.20
10852;BME280;5479;52.046;6.314;2023-06-10T06:07:34;101472.28;;;20.68;90.34
10852;BME280;5479;52.046;6.314;2023-06-10T06:10:03;101469.00;;;20.64;88.75
10852;BME280;5479;52.046;6.314;2023-06-10T06:12:31;101475.34;;;20.54;91.56
10852;BME280;5479;52.046;6.314;2023-06-10T06:15:00;101466.00;;;20.58;91.73
10852;BME280;5479;52.046;6.314;2023-06-10T06:17:28;101473.25;;;20.67;92.33
10852;BME280;5479;52.046;6.314;2023-06-10T06:19:56;101470.88;;;20.83;88.92
10852;BME280;5479;52.046;6.314;2023-06-10T06:22:24;101485.34;;;20.91;88.25
10852;BME280;5479;52.046;6.314;2023-06-10T06:24:52;101477.66;;;20.87;85.71
10852;BME280;5479;52.046;6.314;2023-06-10T06:27:19;101476.13;;;20.94;84.92
10852;BME280;5479;52.046;6.314;2023-06-10T06:29:47;101487.34;;;21.18;82.50
10852;BME280;5479;52.046;6.314;2023-06-10T06:32:17;101484.25;;;21.79;79.16
10852;BME280;5479;52.046;6.314;2023-06-10T06:34:45;101472.44;;;22.98;70.78
10852;BME280;5479;52.046;6.314;2023-06-10T06:37:13;101470.34;;;23.96;62.54
10852;BME280;5479;52.046;6.314;2023-06-10T06:39:40;101463.84;;;24.57;58.02
10852;BME280;5479;52.046;6.314;2023-06-10T06:42:08;101477.44;;;25.94;52.93
10852;BME280;5479;52.046;6.314;2023-06-10T06:44:37;101481.28;;;26.24;50.94
10852;BME280;5479;52.046;6.314;2023-06-10T06:47:06;101487.59;;;26.00;49.69
10852;BME280;5479;52.046;6.314;2023-06-10T06:49:36;101483.16;;;26.15;49.34
10852;BME280;5479;52.046;6.314;2023-06-10T06:52:04;101488.25;;;27.11;47.32
10852;BME280;5479;52.046;6.314;2023-06-10T06:54:35;101479.94;;;27.87;45.18
10852;BME280;5479;52.046;6.314;2023-06-10T06:57:03;101474.84;;;28.42;43.98
10852;BME280;5479;52.046;6.314;2023-06-10T06:59:32;101479.22;;;28.58;42.34
10852;BME280;5479;52.046;6.314;2023-06-10T07:02:00;101475.31;;;27.35;44.57
10852;BME280;5479;52.046;6.314;2023-06-10T07:04:28;101486.81;;;27.00;46.30
10852;BME280;5479;52.046;6.314;2023-06-10T07:06:58;101483.91;;;27.47;44.62
10852;BME280;5479;52.046;6.314;2023-06-10T07:09:27;101482.72;;;27.64;44.15
10852;BME280;5479;52.046;6.314;2023-06-10T07:11:55;101484.84;;;28.35;43.06
10852;BME280;5479;52.046;6.314;2023-06-10T07:14:22;101482.53;;;29.25;41.45
10852;BME280;5479;52.046;6.314;2023-06-10T07:16:50;101482.06;;;29.70;39.98
10852;BME280;5479;52.046;6.314;2023-06-10T07:19:18;101487.06;;;29.39;39.73
10852;BME280;5479;52.046;6.314;2023-06-10T07:21:46;101487.03;;;30.22;38.98
10852;BME280;5479;52.046;6.314;2023-06-10T07:24:16;101492.56;;;30.76;37.65
10852;BME280;5479;52.046;6.314;2023-06-10T07:26:43;101486.16;;;30.56;37.17
10852;BME280;5479;52.046;6.314;2023-06-10T07:29:11;101494.31;;;30.09;37.53
10852;BME280;5479;52.046;6.314;2023-06-10T07:31:41;101491.69;;;29.66;38.27
10852;BME280;5479;52.046;6.314;2023-06-10T07:34:09;101486.66;;;30.32;37.99
10852;BME280;5479;52.046;6.314;2023-06-10T07:36:37;101490.19;;;30.26;37.37
10852;BME280;5479;52.046;6.314;2023-06-10T07:39:05;101488.34;;;30.33;36.25
10852;BME280;5479;52.046;6.314;2023-06-10T07:41:35;101493.34;;;30.23;36.85
10852;BME280;5479;52.046;6.314;2023-06-10T07:44:03;101498.78;;;28.61;39.04
10852;BME280;5479;52.046;6.314;2023-06-10T07:46:31;101502.84;;;28.36;39.96
10852;BME280;5479;52.046;6.314;2023-06-10T07:48:58;101489.72;;;28.25;40.99
10852;BME280;5479;52.046;6.314;2023-06-10T07:51:26;101501.81;;;29.45;38.09
10852;BME280;5479;52.046;6.314;2023-06-10T07:53:54;101501.22;;;29.49;38.75
10852;BME280;5479;52.046;6.314;2023-06-10T07:56:22;101503.69;;;29.93;37.63
10852;BME280;5479;52.046;6.314;2023-06-10T07:58:53;101503.72;;;30.00;37.39
10852;BME280;5479;52.046;6.314;2023-06-10T08:01:22;101499.78;;;30.09;37.37
10852;BME280;5479;52.046;6.314;2023-06-10T08:03:51;101494.09;;;30.04;37.28
10852;BME280;5479;52.046;6.314;2023-06-10T08:06:18;101490.69;;;29.46;37.32
10852;BME280;5479;52.046;6.314;2023-06-10T08:08:48;101496.16;;;30.02;37.67
10852;BME280;5479;52.046;6.314;2023-06-10T08:11:16;101488.69;;;31.77;35.26
10852;BME280;5479;52.046;6.314;2023-06-10T08:13:44;101494.38;;;31.30;34.52
10852;BME280;5479;52.046;6.314;2023-06-10T08:16:13;101495.44;;;30.55;35.52
10852;BME280;5479;52.046;6.314;2023-06-10T08:18:41;101494.31;;;30.43;36.43
10852;BME280;5479;52.046;6.314;2023-06-10T08:21:09;101488.50;;;30.59;35.39
10852;BME280;5479;52.046;6.314;2023-06-10T08:23:37;101497.19;;;29.45;36.76
10852;BME280;5479;52.046;6.314;2023-06-10T08:26:07;101493.16;;;29.41;37.13
10852;BME280;5479;52.046;6.314;2023-06-10T08:28:35;101496.66;;;29.14;37.78
10852;BME280;5479;52.046;6.314;2023-06-10T08:31:03;101489.78;;;29.88;36.95
10852;BME280;5479;52.046;6.314;2023-06-10T08:33:32;101492.47;;;29.81;36.00
10852;BME280;5479;52.046;6.314;2023-06-10T08:36:01;101492.38;;;30.03;35.59
10852;BME280;5479;52.046;6.314;2023-06-10T08:38:29;101494.34;;;30.15;35.56
10852;BME280;5479;52.046;6.314;2023-06-10T08:40:59;101483.25;;;30.23;35.99
10852;BME280;5479;52.046;6.314;2023-06-10T08:43:32;101486.56;;;30.53;34.81
10852;BME280;5479;52.046;6.314;2023-06-10T08:46:01;101487.63;;;31.72;33.75
10852;BME280;5479;52.046;6.314;2023-06-10T08:48:30;101492.84;;;30.94;34.29
10852;BME280;5479;52.046;6.314;2023-06-10T08:50:59;101483.47;;;30.22;35.25
10852;BME280;5479;52.046;6.314;2023-06-10T08:53:30;101481.91;;;31.14;34.24
10852;BME280;5479;52.046;6.314;2023-06-10T08:56:00;101483.38;;;32.08;32.39
10852;BME280;5479;52.046;6.314;2023-06-10T08:58:32;101469.50;;;31.44;33.00
10852;BME280;5479;52.046;6.314;2023-06-10T09:01:07;101488.66;;;31.97;31.75
10852;BME280;5479;52.046;6.314;2023-06-10T09:03:36;101481.53;;;31.50;32.56
10852;BME280;5479;52.046;6.314;2023-06-10T09:06:07;101481.94;;;31.73;31.80
10852;BME280;5479;52.046;6.314;2023-06-10T09:08:35;101480.66;;;31.82;32.00
10852;BME280;5479;52.046;6.314;2023-06-10T09:11:03;101482.59;;;32.52;31.07
10852;BME280;5479;52.046;6.314;2023-06-10T09:13:31;101474.56;;;32.57;30.91
10852;BME280;5479;52.046;6.314;2023-06-10T09:15:59;101473.72;;;32.57;31.18
10852;BME280;5479;52.046;6.314;2023-06-10T09:18:28;101473.75;;;32.44;31.49
10852;BME280;5479;52.046;6.314;2023-06-10T09:20:57;101473.53;;;31.75;31.71
10852;BME280;5479;52.046;6.314;2023-06-10T09:23:27;101470.16;;;31.40;31.90
10852;BME280;5479;52.046;6.314;2023-06-10T09:25:58;101470.16;;;31.53;32.04
10852;BME280;5479;52.046;6.314;2023-06-10T09:28:26;101477.69;;;31.84;32.36
10852;BME280;5479;52.046;6.314;2023-06-10T09:31:04;101478.97;;;31.22;31.99
10852;BME280;5479;52.046;6.314;2023-06-10T09:33:32;101476.00;;;32.02;31.42
10852;BME280;5479;52.046;6.314;2023-06-10T09:36:01;101478.53;;;32.04;31.08
10852;BME280;5479;52.046;6.314;2023-06-10T09:38:32;101476.84;;;31.96;31.14
10852;BME280;5479;52.046;6.314;2023-06-10T09:41:01;101474.34;;;31.16;32.49
10852;BME280;5479;52.046;6.314;2023-06-10T09:43:48;101473.69;;;30.94;32.19
10852;BME280;5479;52.046;6.314;2023-06-10T09:46:16;101471.81;;;31.28;31.99
10852;BME280;5479;52.046;6.314;2023-06-10T09:48:46;101467.56;;;31.97;31.10
10852;BME280;5479;52.046;6.314;2023-06-10T09:51:15;101469.44;;;32.23;31.71
10852;BME280;5479;52.046;6.314;2023-06-10T09:53:47;101466.03;;;32.72;29.76
10852;BME280;5479;52.046;6.314;2023-06-10T09:56:15;101473.88;;;32.11;30.09
10852;BME280;5479;52.046;6.314;2023-06-10T09:58:45;101469.25;;;31.98;30.44
10852;BME280;5479;52.046;6.314;2023-06-10T10:01:14;101468.75;;;32.28;30.51
10852;BME280;5479;52.046;6.314;2023-06-10T10:03:43;101464.81;;;32.17;31.45
10852;BME280;5479;52.046;6.314;2023-06-10T10:06:15;101469.72;;;31.69;31.42
10852;BME280;5479;52.046;6.314;2023-06-10T10:08:46;101467.34;;;32.05;30.31
10852;BME280;5479;52.046;6.314;2023-06-10T10:11:17;101465.72;;;32.49;29.37
10852;BME280;5479;52.046;6.314;2023-06-10T10:13:48;101467.16;;;31.87;30.15
10852;BME280;5479;52.046;6.314;2023-06-10T10:16:19;101462.53;;;31.88;29.55
10852;BME280;5479;52.046;6.314;2023-06-10T10:18:51;101460.25;;;31.52;29.92
10852;BME280;5479;52.046;6.314;2023-06-10T10:21:23;101458.19;;;31.54;30.47
10852;BME280;5479;52.046;6.314;2023-06-10T10:24:02;101459.59;;;31.83;29.55
10852;BME280;5479;52.046;6.314;2023-06-10T10:26:35;101453.16;;;32.28;28.16
10852;BME280;5479;52.046;6.314;2023-06-10T10:29:09;101457.84;;;32.21;29.38
10852;BME280;5479;52.046;6.314;2023-06-10T10:31:39;101459.06;;;33.38;28.21
10852;BME280;5479;52.046;6.314;2023-06-10T10:34:12;101455.28;;;33.08;29.48
10852;BME280;5479;52.046;6.314;2023-06-10T10:36:41;101455.25;;;33.64;27.46
10852;BME280;5479;52.046;6.314;2023-06-10T10:39:12;101447.81;;;33.47;26.90
10852;BME280;5479;52.046;6.314;2023-06-10T10:41:40;101457.19;;;33.08;27.19
10852;BME280;5479;52.046;6.314;2023-06-10T10:44:09;101451.22;;;33.67;26.96
10852;BME280;5479;52.046;6.314;2023-06-10T10:46:46;101441.06;;;33.42;27.50
10852;BME280;5479;52.046;6.314;2023-06-10T10:49:17;101439.22;;;33.36;27.09
10852;BME280;5479;52.046;6.314;2023-06-10T10:51:55;101448.25;;;33.44;26.95
10852;BME280;5479;52.046;6.314;2023-06-10T10:54:33;101437.81;;;32.65;27.23
10852;BME280;5479;52.046;6.314;2023-06-10T10:57:14;101448.19;;;32.05;27.98
10852;BME280;5479;52.046;6.314;2023-06-10T10:59:56;101432.81;;;32.49;28.46
10852;BME280;5479;52.046;6.314;2023-06-10T11:02:34;101432.38;;;32.52;27.50
10852;BME280;5479;52.046;6.314;2023-06-10T11:05:06;101436.25;;;32.38;27.52
10852;BME280;5479;52.046;6.314;2023-06-10T11:07:35;101430.31;;;32.47;26.97
10852;BME280;5479;52.046;6.314;2023-06-10T11:10:06;101413.66;;;32.80;27.52
10852;BME280;5479;52.046;6.314;2023-06-10T11:12:51;101427.19;;;33.80;27.13
10852;BME280;5479;52.046;6.314;2023-06-10T11:15:22;101432.72;;;33.31;25.74
10852;BME280;5479;52.046;6.314;2023-06-10T11:18:09;101425.75;;;33.04;25.63
10852;BME280;5479;52.046;6.314;2023-06-10T11:20:58;101422.28;;;32.46;25.84
10852;BME280;5479;52.046;6.314;2023-06-10T11:23:41;101412.06;;;33.71;26.77
10852;BME280;5479;52.046;6.314;2023-06-10T11:26:16;101412.25;;;32.71;27.29
10852;BME280;5479;52.046;6.314;2023-06-10T11:29:04;101414.13;;;32.33;27.85
10852;BME280;5479;52.046;6.314;2023-06-10T11:31:35;101415.22;;;32.69;26.89
10852;BME280;5479;52.046;6.314;2023-06-10T11:34:06;101417.03;;;33.13;26.09
10852;BME280;5479;52.046;6.314;2023-06-10T11:36:37;101416.75;;;33.21;25.48
10852;BME280;5479;52.046;6.314;2023-06-10T11:39:06;101413.31;;;33.01;24.77
10852;BME280;5479;52.046;6.314;2023-06-10T11:41:38;101407.59;;;33.03;25.32
10852;BME280;5479;52.046;6.314;2023-06-10T11:44:10;101400.31;;;32.59;26.02
10852;BME280;5479;52.046;6.314;2023-06-10T11:46:39;101413.00;;;32.53;24.69
10852;BME280;5479;52.046;6.314;2023-06-10T11:49:09;101408.38;;;32.47;27.19
10852;BME280;5479;52.046;6.314;2023-06-10T11:51:38;101412.25;;;32.27;26.98
10852;BME280;5479;52.046;6.314;2023-06-10T11:54:08;101402.19;;;32.20;26.97
10852;BME280;5479;52.046;6.314;2023-06-10T11:56:38;101409.94;;;31.59;26.35
10852;BME280;5479;52.046;6.314;2023-06-10T11:59:06;101420.38;;;32.02;27.23
10852;BME280;5479;52.046;6.314;2023-06-10T12:01:37;101411.53;;;31.93;26.56
10852;BME280;5479;52.046;6.314;2023-06-10T12:04:08;101406.91;;;32.00;27.50
10852;BME280;5479;52.046;6.314;2023-06-10T12:06:43;101396.00;;;31.74;27.37
10852;BME280;5479;52.046;6.314;2023-06-10T12:09:14;101411.41;;;31.29;28.14
10852;BME280;5479;52.046;6.314;2023-06-10T12:11:44;101394.38;;;31.47;28.49
10852;BME280;5479;52.046;6.314;2023-06-10T12:14:13;101397.13;;;32.17;27.57
10852;BME280;5479;52.046;6.314;2023-06-10T12:16:48;101400.13;;;32.09;28.66
10852;BME280;5479;52.046;6.314;2023-06-10T12:19:18;101391.47;;;32.12;27.60
10852;BME280;5479;52.046;6.314;2023-06-10T12:21:46;101391.31;;;31.88;27.65
10852;BME280;5479;52.046;6.314;2023-06-10T12:24:17;101389.25;;;31.83;28.40
10852;BME280;5479;52.046;6.314;2023-06-10T12:26:46;101384.53;;;32.03;27.75
10852;BME280;5479;52.046;6.314;2023-06-10T12:29:18;101390.47;;;31.87;27.78
10852;BME280;5479;52.046;6.314;2023-06-10T12:32:01;101391.38;;;31.75;28.20
10852;BME280;5479;52.046;6.314;2023-06-10T12:34:36;101383.38;;;31.60;28.62
10852;BME280;5479;52.046;6.314;2023-06-10T12:37:10;101380.44;;;31.42;29.84
10852;BME280;5479;52.046;6.314;2023-06-10T12:39:40;101380.88;;;31.58;28.72
10852;BME280;5479;52.046;6.314;2023-06-10T12:42:12;101383.00;;;31.50;28.32
10852;BME280;5479;52.046;6.314;2023-06-10T12:44:40;101392.03;;;31.63;29.08
10852;BME280;5479;52.046;6.314;2023-06-10T12:47:09;101378.75;;;31.60;29.25
10852;BME280;5479;52.046;6.314;2023-06-10T12:49:39;101379.22;;;31.38;28.84
10852;BME280;5479;52.046;6.314;2023-06-10T12:52:11;101369.72;;;31.34;29.10
10852;BME280;5479;52.046;6.314;2023-06-10T12:54:40;101374.16;;;31.48;29.90
10852;BME280;5479;52.046;6.314;2023-06-10T12:57:10;101365.31;;;31.46;29.35
10852;BME280;5479;52.046;6.314;2023-06-10T12:59:38;101369.06;;;31.45;29.36
10852;BME280;5479;52.046;6.314;2023-06-10T13:02:07;101372.91;;;31.18;29.60
10852;BME280;5479;52.046;6.314;2023-06-10T13:04:35;101368.66;;;30.82;29.90
10852;BME280;5479;52.046;6.314;2023-06-10T13:07:02;101373.69;;;30.85;29.94
10852;BME280;5479;52.046;6.314;2023-06-10T13:09:31;101370.31;;;30.64;29.72